Time;durP1;ratioP1;P1;durP2;ratioP2;P2;SDS_P1;SDS_P2;PMS_P1;PMS_P2;Temp;Humidity;BMP_temperature;BMP_pressure;BME280_temperature;BME280_humidity;BME280_pressure;Samples;Min_cycle;Max_cycle;Signal;HPM_P1;HPM_P2
2023/07/09 00:02:24;;;;;;;13.10;4.60;;;;;;;17.01;67.30;100670.86;110119;1272;22170;-59
2023/07/09 00:04:55;;;;;;;13.40;5.20;;;;;;;16.98;67.42;100675.52;110165;1273;22182;-57
2023/07/09 00:07:28;;;;;;;13.50;4.60;;;;;;;16.93;67.63;100671.33;110125;1276;22288;-58
2023/07/09 00:10:00;;;;;;;14.50;4.10;;;;;;;16.90;67.72;100676.96;110111;1269;22162;-59
2023/07/09 00:12:31;;;;;;;9.50;3.10;;;;;;;16.84;67.82;100680.49;110105;1269;22212;-58
2023/07/09 00:15:02;;;;;;;11.90;3.60;;;;;;;16.78;67.84;100677.02;110116;1272;22420;-57
2023/07/09 00:17:35;;;;;;;10.70;3.40;;;;;;;16.72;68.10;100679.80;110113;1273;22853;-58
2023/07/09 00:20:13;;;;;;;12.90;3.20;;;;;;;16.63;68.19;100679.40;110137;1273;22315;-57
2023/07/09 00:22:51;;;;;;;11.30;3.70;;;;;;;16.54;68.38;100675.19;110120;1276;22121;-57
2023/07/09 00:25:24;;;;;;;11.60;3.70;;;;;;;16.45;68.47;100676.36;110094;1273;22252;-57
2023/07/09 00:27:54;;;;;;;12.60;4.00;;;;;;;16.38;68.61;100679.11;110144;1272;22201;-58
2023/07/09 00:30:26;;;;;;;13.50;4.00;;;;;;;16.34;68.85;100678.59;110116;1269;22893;-57
2023/07/09 00:32:57;;;;;;;14.90;3.90;;;;;;;16.28;68.81;100676.52;110092;1272;22921;-58
2023/07/09 00:35:28;;;;;;;10.60;3.50;;;;;;;16.21;68.94;100678.66;110103;1273;23052;-56
2023/07/09 00:38:00;;;;;;;10.20;3.30;;;;;;;16.16;69.21;100680.39;110101;1279;22135;-57
2023/07/09 00:40:31;;;;;;;11.20;4.10;;;;;;;16.12;69.28;100676.17;110134;1274;22174;-58
2023/07/09 00:43:02;;;;;;;12.30;4.40;;;;;;;16.06;69.40;100674.40;110131;1268;22327;-58
2023/07/09 00:45:33;;;;;;;12.90;3.90;;;;;;;16.03;69.28;100674.97;110080;1272;22281;-57
2023/07/09 00:48:07;;;;;;;12.60;4.30;;;;;;;16.00;69.55;100674.27;110113;1273;22487;-57
2023/07/09 00:50:42;;;;;;;14.00;4.20;;;;;;;15.96;69.55;100679.75;110127;1269;22169;-57
2023/07/09 00:53:24;;;;;;;11.70;4.00;;;;;;;15.90;69.81;100678.75;110137;1265;22362;-57
2023/07/09 00:56:04;;;;;;;11.70;4.00;;;;;;;15.85;69.97;100675.45;110118;1279;22135;-57
2023/07/09 00:58:37;;;;;;;15.50;5.50;;;;;;;15.81;70.18;100672.36;110093;1279;22212;-57
2023/07/09 01:01:12;;;;;;;11.60;3.80;;;;;;;15.77;70.25;100670.55;110113;1273;22932;-58
2023/07/09 01:03:48;;;;;;;12.40;3.50;;;;;;;15.73;70.21;100670.58;110127;1275;22135;-58
2023/07/09 01:06:26;;;;;;;11.90;3.80;;;;;;;15.70;70.30;100667.30;110092;1273;22217;-58
2023/07/09 01:08:56;;;;;;;9.70;3.80;;;;;;;15.69;70.47;100670.66;110075;1272;22117;-56
2023/07/09 01:11:27;;;;;;;16.60;5.80;;;;;;;15.65;70.78;100670.49;110091;1272;22158;-56
2023/07/09 01:14:02;;;;;;;16.20;5.60;;;;;;;15.63;71.08;100676.42;110113;1279;22298;-58
2023/07/09 01:16:37;;;;;;;14.20;4.90;;;;;;;15.59;71.23;100679.41;110088;1268;22181;-58
2023/07/09 01:19:08;;;;;;;12.40;4.30;;;;;;;15.56;71.34;100677.55;110095;1276;22963;-57
2023/07/09 01:21:39;;;;;;;13.90;5.20;;;;;;;15.53;71.03;100676.25;110131;1269;22121;-57
2023/07/09 01:24:37;;;;;;;13.30;5.20;;;;;;;15.51;71.27;100679.06;110084;1277;22151;-58
2023/07/09 01:27:09;;;;;;;12.70;5.40;;;;;;;15.49;71.43;100677.05;110114;1275;22135;-57
2023/07/09 01:29:40;;;;;;;10.40;4.70;;;;;;;15.48;71.62;100670.75;110083;1273;22201;-58
2023/07/09 01:32:11;;;;;;;15.20;5.50;;;;;;;15.50;71.95;100671.53;110103;1273;22326;-57
2023/07/09 01:34:42;;;;;;;14.10;5.30;;;;;;;15.49;72.05;100673.41;110117;1279;22314;-58
2023/07/09 01:37:13;;;;;;;15.60;5.70;;;;;;;15.48;72.40;100676.83;110107;1273;23689;-57
2023/07/09 01:39:44;;;;;;;14.10;5.00;;;;;;;15.47;72.45;100680.57;110072;1269;22210;-57
2023/07/09 01:42:15;;;;;;;16.00;5.30;;;;;;;15.46;72.70;100677.23;110095;1269;23005;-57
2023/07/09 01:44:46;;;;;;;13.40;4.80;;;;;;;15.46;72.78;100677.48;110064;1273;22156;-58
2023/07/09 01:47:17;;;;;;;14.20;5.00;;;;;;;15.44;72.77;100674.93;110103;1267;23137;-58
2023/07/09 01:49:48;;;;;;;12.80;5.90;;;;;;;15.40;72.92;100670.83;110112;1277;22334;-57
2023/07/09 01:52:22;;;;;;;14.10;5.10;;;;;;;15.36;72.93;100679.23;110102;1273;22177;-58
2023/07/09 01:54:53;;;;;;;13.60;4.50;;;;;;;15.32;73.15;100680.55;110101;1269;22219;-57
2023/07/09 01:57:32;;;;;;;14.70;5.00;;;;;;;15.27;72.93;100673.96;110073;1273;22161;-57
2023/07/09 02:00:08;;;;;;;20.20;4.90;;;;;;;15.23;73.00;100674.76;110092;1276;22172;-58
2023/07/09 02:02:42;;;;;;;12.80;4.80;;;;;;;15.19;73.08;100672.06;110091;1276;22840;-56
2023/07/09 02:05:15;;;;;;;12.00;4.40;;;;;;;15.14;73.22;100672.86;110099;1267;22322;-59
2023/07/09 02:07:46;;;;;;;14.50;4.80;;;;;;;15.09;73.43;100672.36;110110;1279;22208;-57
2023/07/09 02:10:18;;;;;;;12.60;4.70;;;;;;;15.05;73.41;100679.06;110088;1273;22188;-57
2023/07/09 02:12:49;;;;;;;14.20;5.40;;;;;;;15.00;73.87;100679.30;110110;1272;22820;-58
2023/07/09 02:15:20;;;;;;;12.30;5.00;;;;;;;14.99;73.57;100678.35;110072;1268;22219;-56
2023/07/09 02:17:52;;;;;;;11.80;5.30;;;;;;;14.94;73.79;100681.80;110085;1273;22229;-58
2023/07/09 02:20:23;;;;;;;15.10;6.20;;;;;;;14.91;74.16;100692.34;110073;1272;22403;-57
2023/07/09 02:22:53;;;;;;;13.10;5.70;;;;;;;14.89;74.37;100700.61;110105;1279;22178;-57
2023/07/09 02:25:24;;;;;;;13.70;4.70;;;;;;;14.90;74.18;100699.45;110109;1273;22179;-58
2023/07/09 02:27:55;;;;;;;16.40;5.40;;;;;;;14.89;74.10;100699.95;110118;1273;22698;-57
2023/07/09 02:30:26;;;;;;;18.30;4.80;;;;;;;14.83;74.20;100689.06;110108;1272;22135;-56
2023/07/09 02:32:57;;;;;;;19.90;5.50;;;;;;;14.79;74.26;100688.09;110096;1279;22985;-58
2023/07/09 02:35:28;;;;;;;16.50;5.20;;;;;;;14.74;74.65;100688.38;110096;1266;22220;-58
2023/07/09 02:37:59;;;;;;;13.20;4.60;;;;;;;14.72;74.72;100689.57;110114;1279;22166;-57
2023/07/09 02:40:30;;;;;;;11.60;5.00;;;;;;;14.71;74.79;100688.39;110088;1273;23546;-58
2023/07/09 02:43:01;;;;;;;15.10;5.40;;;;;;;14.71;74.86;100692.93;110091;1273;22338;-58
2023/07/09 02:45:32;;;;;;;17.40;5.70;;;;;;;14.70;75.28;100698.34;110103;1276;22155;-58
2023/07/09 02:48:02;;;;;;;17.60;4.90;;;;;;;14.64;75.66;100703.33;110092;1272;23152;-57
2023/07/09 02:50:33;;;;;;;14.00;4.60;;;;;;;14.58;75.16;100710.08;110089;1277;22216;-57
2023/07/09 02:53:04;;;;;;;16.10;4.40;;;;;;;14.52;75.05;100709.70;110097;1273;22393;-58
2023/07/09 02:55:35;;;;;;;12.60;4.50;;;;;;;14.49;75.05;100706.09;110109;1276;22639;-57
2023/07/09 02:58:06;;;;;;;13.50;5.40;;;;;;;14.44;75.22;100695.31;110139;1269;23307;-58
2023/07/09 03:00:37;;;;;;;16.50;5.20;;;;;;;14.42;75.31;100695.19;110098;1276;22263;-58
2023/07/09 03:03:08;;;;;;;15.50;5.80;;;;;;;14.42;75.69;100695.75;110083;1276;22196;-57
2023/07/09 03:05:39;;;;;;;15.60;5.00;;;;;;;14.43;75.82;100700.58;110084;1269;22180;-58
2023/07/09 03:08:10;;;;;;;14.20;5.60;;;;;;;14.45;76.18;100695.23;110095;1273;22326;-59
2023/07/09 03:10:41;;;;;;;14.50;5.50;;;;;;;14.46;76.22;100700.70;110085;1279;22236;-58
2023/07/09 03:13:12;;;;;;;13.80;6.40;;;;;;;14.48;76.62;100700.52;110086;1268;22227;-56
2023/07/09 03:15:43;;;;;;;16.90;7.20;;;;;;;14.51;76.75;100697.75;110105;1268;22186;-56
2023/07/09 03:18:14;;;;;;;17.70;8.30;;;;;;;14.53;76.73;100706.45;110114;1269;22166;-58
2023/07/09 03:20:45;;;;;;;15.90;7.10;;;;;;;14.54;77.11;100712.33;110088;1270;22319;-57
2023/07/09 03:23:16;;;;;;;13.90;5.50;;;;;;;14.54;77.05;100715.87;110111;1267;22342;-58
2023/07/09 03:25:47;;;;;;;13.30;5.70;;;;;;;14.54;76.95;100713.30;110113;1279;22215;-58
2023/07/09 03:28:18;;;;;;;18.60;6.40;;;;;;;14.55;77.37;100713.67;110086;1268;22204;-57
2023/07/09 03:30:50;;;;;;;16.70;6.20;;;;;;;14.52;77.41;100717.17;110131;1268;22150;-57
2023/07/09 03:33:21;;;;;;;13.50;5.50;;;;;;;14.53;77.40;100707.98;110089;1273;22165;-58
2023/07/09 03:35:52;;;;;;;14.10;5.90;;;;;;;14.58;77.30;100703.13;110101;1272;22189;-58
2023/07/09 03:38:23;;;;;;;16.10;7.30;;;;;;;14.63;77.70;100702.30;110107;1273;22402;-58
2023/07/09 03:40:55;;;;;;;18.00;7.30;;;;;;;14.66;78.01;100708.77;110111;1279;22198;-57
2023/07/09 03:43:26;;;;;;;22.50;9.00;;;;;;;14.69;77.98;100709.73;110107;1266;22122;-59
2023/07/09 03:45:57;;;;;;;21.00;8.30;;;;;;;14.73;78.41;100696.88;110095;1270;22275;-58
2023/07/09 03:48:29;;;;;;;22.20;8.00;;;;;;;14.76;78.27;100698.75;110083;1273;22184;-58
2023/07/09 03:51:00;;;;;;;19.00;8.40;;;;;;;14.81;78.47;100699.52;110069;1269;22947;-58
2023/07/09 03:53:31;;;;;;;20.10;8.50;;;;;;;14.85;78.49;100701.09;110100;1266;22960;-58
2023/07/09 03:56:02;;;;;;;16.60;6.80;;;;;;;14.89;78.67;100701.46;110133;1274;22290;-56
2023/07/09 03:58:32;;;;;;;16.50;5.80;;;;;;;14.92;78.44;100709.13;110111;1276;22284;-58
2023/07/09 04:01:03;;;;;;;15.90;5.70;;;;;;;14.89;78.31;100721.77;110117;1269;22392;-59
2023/07/09 04:03:34;;;;;;;14.80;6.30;;;;;;;14.85;77.96;100712.27;110096;1273;22191;-58
2023/07/09 04:06:05;;;;;;;16.00;7.00;;;;;;;14.84;78.14;100710.78;110067;1273;22244;-58
2023/07/09 04:08:36;;;;;;;18.90;6.70;;;;;;;14.85;78.13;100713.45;110089;1269;22155;-58
2023/07/09 04:11:07;;;;;;;14.00;6.20;;;;;;;14.89;78.43;100701.63;110092;1273;22330;-58
2023/07/09 04:13:38;;;;;;;16.40;6.40;;;;;;;14.92;78.91;100709.94;110088;1269;22914;-59
2023/07/09 04:16:10;;;;;;;16.00;6.30;;;;;;;14.98;79.18;100718.58;110088;1276;23008;-58
2023/07/09 04:18:41;;;;;;;15.60;6.50;;;;;;;15.05;79.42;100723.23;110086;1276;22188;-58
2023/07/09 04:21:11;;;;;;;17.90;6.70;;;;;;;15.12;79.06;100712.98;110090;1269;22157;-58
2023/07/09 04:23:42;;;;;;;17.50;7.20;;;;;;;15.19;79.34;100712.15;110075;1272;22241;-58
2023/07/09 04:26:15;;;;;;;16.00;7.80;;;;;;;15.24;79.44;100727.64;110093;1272;23414;-59
2023/07/09 04:28:46;;;;;;;18.00;6.70;;;;;;;15.33;79.38;100734.61;110107;1279;22595;-58
2023/07/09 04:31:16;;;;;;;18.70;7.50;;;;;;;15.41;79.89;100738.77;110118;1270;22437;-59
2023/07/09 04:33:47;;;;;;;16.60;8.30;;;;;;;15.50;79.60;100721.52;110088;1273;22199;-58
2023/07/09 04:36:18;;;;;;;18.10;7.90;;;;;;;15.60;79.97;100723.42;110096;1276;22209;-59
2023/07/09 04:38:49;;;;;;;18.70;8.10;;;;;;;15.68;79.91;100719.84;110085;1273;22151;-59
2023/07/09 04:41:20;;;;;;;18.70;7.50;;;;;;;15.77;80.05;100725.66;110111;1267;22179;-58
2023/07/09 04:43:51;;;;;;;18.80;6.60;;;;;;;15.87;79.96;100730.39;110094;1279;22213;-59
2023/07/09 04:46:22;;;;;;;15.10;6.60;;;;;;;16.00;79.97;100719.80;110084;1269;22186;-58
2023/07/09 04:48:53;;;;;;;18.70;7.20;;;;;;;16.13;80.06;100726.01;110103;1273;22198;-58
2023/07/09 04:51:24;;;;;;;18.40;7.00;;;;;;;16.25;79.98;100737.48;110073;1276;22201;-58
2023/07/09 04:53:55;;;;;;;22.00;7.90;;;;;;;16.37;80.11;100732.23;110064;1276;22167;-57
2023/07/09 04:56:26;;;;;;;14.90;6.30;;;;;;;16.51;80.22;100748.65;110062;1267;22169;-58
2023/07/09 04:58:56;;;;;;;15.00;6.20;;;;;;;16.61;79.96;100754.38;110117;1274;22216;-58
2023/07/09 05:01:28;;;;;;;18.30;7.30;;;;;;;16.71;79.89;100751.84;110097;1272;22276;-58
2023/07/09 05:03:59;;;;;;;16.70;6.60;;;;;;;16.78;79.43;100744.84;110083;1269;22180;-59
2023/07/09 05:06:30;;;;;;;17.80;7.50;;;;;;;16.88;79.79;100731.67;110105;1276;22228;-59
2023/07/09 05:09:01;;;;;;;18.80;6.90;;;;;;;16.99;79.78;100737.31;110086;1272;22161;-59
2023/07/09 05:11:32;;;;;;;17.00;6.30;;;;;;;17.10;79.72;100748.50;110111;1267;22201;-58
2023/07/09 05:14:03;;;;;;;15.90;7.50;;;;;;;17.24;79.54;100745.23;110102;1279;22316;-59
2023/07/09 05:16:34;;;;;;;15.30;7.20;;;;;;;17.39;79.66;100742.96;110118;1276;22197;-59
2023/07/09 05:19:07;;;;;;;20.60;7.00;;;;;;;17.54;79.47;100743.90;110099;1273;22906;-60
2023/07/09 05:21:38;;;;;;;16.00;5.80;;;;;;;17.70;79.27;100745.20;110088;1277;22218;-60
2023/07/09 05:24:09;;;;;;;18.50;6.70;;;;;;;17.81;78.87;100755.45;110034;1265;22311;-60
2023/07/09 05:26:40;;;;;;;18.60;6.60;;;;;;;17.96;78.97;100749.00;110121;1272;22174;-58
2023/07/09 05:29:11;;;;;;;14.90;6.30;;;;;;;18.10;78.67;100745.41;110105;1273;22342;-60
2023/07/09 05:31:42;;;;;;;22.40;6.80;;;;;;;18.26;78.69;100743.18;110122;1279;22188;-61
2023/07/09 05:34:13;;;;;;;17.00;7.70;;;;;;;18.42;78.10;100751.19;110105;1276;22207;-61
2023/07/09 05:36:44;;;;;;;19.10;6.40;;;;;;;18.54;78.14;100753.15;110100;1272;22213;-60
2023/07/09 05:39:16;;;;;;;15.30;6.40;;;;;;;18.69;77.78;100751.48;110090;1273;22156;-60
2023/07/09 05:41:47;;;;;;;15.50;6.40;;;;;;;18.81;77.78;100749.80;110090;1273;22196;-59
2023/07/09 05:44:18;;;;;;;17.50;6.90;;;;;;;19.01;77.75;100753.58;110094;1273;22318;-60
2023/07/09 05:46:49;;;;;;;19.00;6.50;;;;;;;19.20;77.14;100749.64;110081;1279;22890;-66
2023/07/09 05:49:20;;;;;;;15.10;5.20;;;;;;;19.34;76.80;100748.23;110058;1273;23670;-59
2023/07/09 05:51:51;;;;;;;17.30;6.60;;;;;;;19.46;76.47;100747.02;110065;1269;22196;-58
2023/07/09 05:54:22;;;;;;;19.20;6.10;;;;;;;19.59;76.12;100748.90;110039;1273;22211;-58
2023/07/09 05:56:53;;;;;;;18.90;7.00;;;;;;;19.71;75.69;100745.79;110103;1273;22178;-58
2023/07/09 05:59:24;;;;;;;16.10;6.30;;;;;;;19.82;75.11;100749.48;110055;1273;22166;-59
2023/07/09 06:01:55;;;;;;;15.50;6.30;;;;;;;19.93;75.25;100745.30;110114;1279;22342;-59
2023/07/09 06:04:26;;;;;;;15.90;5.70;;;;;;;20.06;75.20;100744.88;110118;1272;22200;-59
2023/07/09 06:06:57;;;;;;;19.10;6.40;;;;;;;20.24;74.62;100746.92;110087;1276;22139;-59
2023/07/09 06:09:28;;;;;;;14.50;5.80;;;;;;;20.39;74.55;100746.52;110069;1273;22167;-59
2023/07/09 06:12:00;;;;;;;14.90;5.60;;;;;;;20.51;73.53;100747.95;110083;1267;22206;-59
2023/07/09 06:14:32;;;;;;;13.30;5.50;;;;;;;20.60;73.18;100749.14;110064;1267;22162;-57
2023/07/09 06:17:03;;;;;;;20.30;7.10;;;;;;;20.72;73.44;100740.82;110124;1279;22164;-56
2023/07/09 06:19:34;;;;;;;14.70;6.10;;;;;;;20.89;73.26;100744.16;110082;1279;22329;-55
2023/07/09 06:22:05;;;;;;;22.50;6.40;;;;;;;21.02;72.49;100747.80;110092;1273;22900;-59
2023/07/09 06:24:36;;;;;;;17.30;5.40;;;;;;;21.11;71.81;100752.52;110120;1269;22418;-57
2023/07/09 06:27:07;;;;;;;17.70;5.80;;;;;;;21.21;71.54;100752.16;110091;1273;22908;-59
2023/07/09 06:29:38;;;;;;;18.90;5.90;;;;;;;21.32;71.31;100751.83;105958;1279;5442043;-56
2023/07/09 06:32:09;;;;;;;15.50;5.60;;;;;;;21.43;71.13;100748.16;110101;1273;22316;-57
2023/07/09 06:34:40;;;;;;;13.10;5.30;;;;;;;21.61;70.80;100750.02;110102;1279;22381;-58
2023/07/09 06:37:11;;;;;;;15.90;6.00;;;;;;;21.74;70.27;100747.55;110093;1267;23181;-58
2023/07/09 06:39:42;;;;;;;16.40;4.90;;;;;;;21.85;70.08;100747.63;110100;1269;22300;-57
2023/07/09 06:42:13;;;;;;;15.30;5.50;;;;;;;22.00;69.94;100744.20;110063;1276;22120;-55
2023/07/09 06:44:44;;;;;;;16.20;5.20;;;;;;;22.12;69.19;100750.63;110112;1269;22164;-57
2023/07/09 06:47:14;;;;;;;14.70;4.90;;;;;;;22.22;68.60;100746.31;110112;1273;22430;-59
2023/07/09 06:49:45;;;;;;;15.50;5.90;;;;;;;22.32;68.63;100746.76;110123;1279;22140;-56
2023/07/09 06:52:16;;;;;;;14.30;4.80;;;;;;;22.45;68.69;100748.33;110112;1266;22213;-57
2023/07/09 06:54:49;;;;;;;16.70;5.50;;;;;;;22.59;68.36;100748.83;110083;1272;22208;-59
2023/07/09 06:57:19;;;;;;;14.80;4.60;;;;;;;22.70;67.40;100746.98;110064;1267;22217;-57
2023/07/09 06:59:50;;;;;;;14.50;4.20;;;;;;;22.81;67.46;100749.31;110103;1267;22848;-59
2023/07/09 07:02:21;;;;;;;14.80;5.00;;;;;;;22.96;67.37;100749.38;110093;1272;22178;-57
2023/07/09 07:04:52;;;;;;;17.30;5.60;;;;;;;23.12;66.69;100752.11;110125;1279;22275;-59
2023/07/09 07:07:23;;;;;;;11.70;4.10;;;;;;;23.20;66.20;100748.23;110094;1269;22221;-58
2023/07/09 07:09:54;;;;;;;15.30;4.60;;;;;;;23.27;66.28;100746.50;110104;1273;23270;-57
2023/07/09 07:12:30;;;;;;;13.20;4.40;;;;;;;23.42;65.06;100749.56;110064;1273;22189;-58
2023/07/09 07:15:01;;;;;;;15.50;5.00;;;;;;;23.52;64.43;100751.39;110067;1272;22128;-58
2023/07/09 07:17:32;;;;;;;15.80;5.10;;;;;;;23.63;64.27;100750.48;110103;1267;23004;-57
2023/07/09 07:20:03;;;;;;;13.80;5.00;;;;;;;23.76;64.01;100746.92;110122;1279;23404;-58
2023/07/09 07:22:34;;;;;;;15.30;4.60;;;;;;;23.87;63.44;100741.98;110094;1279;23325;-57
2023/07/09 07:25:07;;;;;;;13.70;5.00;;;;;;;23.97;62.66;100739.95;110043;1266;22424;-56
2023/07/09 07:27:39;;;;;;;14.30;4.80;;;;;;;24.06;61.75;100747.55;110061;1272;22438;-59
2023/07/09 07:30:12;;;;;;;13.90;4.00;;;;;;;24.14;61.23;100743.09;110059;1273;22142;-59
2023/07/09 07:32:46;;;;;;;11.90;4.00;;;;;;;24.25;60.01;100743.30;110023;1273;22345;-57
2023/07/09 07:35:18;;;;;;;14.70;4.00;;;;;;;24.37;59.02;100741.84;110013;1264;22345;-59
2023/07/09 07:37:48;;;;;;;10.90;4.20;;;;;;;24.50;58.71;100738.92;110047;1269;22166;-59
2023/07/09 07:40:19;;;;;;;12.70;4.40;;;;;;;24.60;58.27;100735.73;110089;1274;22228;-60
2023/07/09 07:42:51;;;;;;;14.30;4.20;;;;;;;24.73;57.33;100737.11;110061;1269;22486;-59
2023/07/09 07:45:23;;;;;;;10.30;4.10;;;;;;;24.79;56.61;100735.02;110026;1269;23323;-59
2023/07/09 07:47:54;;;;;;;12.00;4.10;;;;;;;24.88;56.25;100736.14;110093;1266;22195;-59
2023/07/09 07:50:25;;;;;;;15.20;3.80;;;;;;;25.02;55.63;100733.92;110022;1266;23132;-58
2023/07/09 07:52:56;;;;;;;15.80;4.60;;;;;;;25.12;54.91;100732.04;110112;1272;22371;-58
2023/07/09 07:55:27;;;;;;;11.60;3.60;;;;;;;25.20;54.87;100732.65;110055;1276;22158;-59
2023/07/09 07:57:58;;;;;;;14.30;5.20;;;;;;;25.35;54.66;100731.84;110032;1272;23400;-59
2023/07/09 08:00:29;;;;;;;12.30;4.00;;;;;;;25.51;54.05;100726.68;110038;1269;22245;-59
2023/07/09 08:03:00;;;;;;;12.70;4.20;;;;;;;25.62;53.42;100729.11;109998;1266;22337;-59
2023/07/09 08:05:31;;;;;;;14.00;4.20;;;;;;;25.68;53.11;100727.92;110002;1266;22952;-58
2023/07/09 08:08:02;;;;;;;12.90;4.50;;;;;;;25.71;52.27;100726.74;110019;1272;22312;-59
2023/07/09 08:10:33;;;;;;;13.30;4.20;;;;;;;25.74;51.78;100729.48;110001;1276;23010;-59
2023/07/09 08:13:04;;;;;;;13.90;3.80;;;;;;;25.80;52.04;100732.30;110021;1272;22355;-59
2023/07/09 08:15:35;;;;;;;11.50;3.50;;;;;;;25.89;51.73;100736.77;110007;1268;22229;-57
2023/07/09 08:18:06;;;;;;;13.40;3.60;;;;;;;26.00;50.76;100743.82;110033;1266;23258;-58
2023/07/09 08:20:37;;;;;;;11.10;4.00;;;;;;;26.10;49.84;100750.49;110039;1266;22163;-59
2023/07/09 08:23:10;;;;;;;9.30;3.10;;;;;;;26.16;49.97;100755.64;110034;1272;23077;-58
2023/07/09 08:25:41;;;;;;;12.70;3.70;;;;;;;26.23;49.74;100757.23;110057;1276;22152;-57
2023/07/09 08:28:13;;;;;;;10.30;2.80;;;;;;;26.31;48.98;100758.38;109994;1272;22223;-59
2023/07/09 08:30:43;;;;;;;12.40;2.90;;;;;;;26.32;48.16;100757.69;109964;1273;22273;-59
2023/07/09 08:33:15;;;;;;;8.50;2.20;;;;;;;26.31;48.14;100754.83;109954;1273;22204;-58
2023/07/09 08:35:47;;;;;;;8.00;2.30;;;;;;;26.33;46.94;100757.42;109938;1273;22340;-59
2023/07/09 08:38:19;;;;;;;8.30;2.70;;;;;;;26.33;46.83;100755.63;109967;1266;22367;-59
2023/07/09 08:40:58;;;;;;;11.90;3.00;;;;;;;26.36;46.51;100751.42;109946;1267;22327;-61
2023/07/09 08:43:51;;;;;;;9.10;2.30;;;;;;;26.39;46.91;100747.98;109976;1266;22207;-60
2023/07/09 08:46:31;;;;;;;8.30;2.10;;;;;;;26.46;47.04;100747.48;109959;1273;22193;-60
2023/07/09 08:49:08;;;;;;;8.00;2.00;;;;;;;26.53;46.86;100751.85;109956;1265;22985;-61
2023/07/09 08:51:42;;;;;;;8.10;2.50;;;;;;;26.63;46.45;100745.47;109953;1273;22998;-60
2023/07/09 08:54:17;;;;;;;9.00;2.20;;;;;;;26.68;46.09;100746.88;109958;1269;22239;-60
2023/07/09 08:56:50;;;;;;;7.50;2.40;;;;;;;26.74;45.89;100742.31;109969;1276;22976;-61
2023/07/09 08:59:24;;;;;;;6.40;1.70;;;;;;;26.82;45.21;100741.61;109982;1273;22303;-61
2023/07/09 09:01:59;;;;;;;11.50;2.30;;;;;;;26.89;43.97;100743.69;109951;1277;22135;-64
2023/07/09 09:04:36;;;;;;;8.30;2.60;;;;;;;26.99;44.03;100745.11;109961;1274;22265;-62
2023/07/09 09:07:18;;;;;;;5.70;1.70;;;;;;;27.08;43.72;100744.36;109972;1266;22148;-60
2023/07/09 09:09:56;;;;;;;8.50;1.90;;;;;;;27.17;43.50;100739.25;109960;1273;22168;-60
2023/07/09 09:12:32;;;;;;;9.80;2.00;;;;;;;27.27;42.18;100740.79;109946;1274;22192;-62
2023/07/09 09:15:12;;;;;;;7.50;1.80;;;;;;;27.35;41.97;100737.84;109959;1266;23753;-61
2023/07/09 09:17:44;;;;;;;7.00;1.80;;;;;;;27.43;41.32;100738.81;109951;1276;23016;-61
2023/07/09 09:20:22;;;;;;;8.10;1.20;;;;;;;27.52;39.93;100739.05;109962;1269;22286;-61
2023/07/09 09:23:01;;;;;;;10.00;1.80;;;;;;;27.64;39.53;100741.32;109993;1270;22208;-60
2023/07/09 09:25:38;;;;;;;7.60;2.00;;;;;;;27.72;39.56;100744.38;109985;1277;22147;-62
2023/07/09 09:28:10;;;;;;;8.00;1.90;;;;;;;27.74;38.93;100746.85;109869;1275;22184;-59
2023/07/09 09:30:42;;;;;;;7.90;1.70;;;;;;;27.78;39.03;100748.16;110047;1269;22204;-60
2023/07/09 09:33:17;;;;;;;11.80;1.50;;;;;;;27.81;38.76;100744.59;110010;1266;22129;-59
2023/07/09 09:35:49;;;;;;;6.30;1.70;;;;;;;27.90;38.72;100748.14;110039;1276;22992;-61
2023/07/09 09:38:23;;;;;;;8.40;2.10;;;;;;;27.96;38.19;100750.89;110037;1273;22218;-61
2023/07/09 09:41:02;;;;;;;4.90;1.20;;;;;;;28.00;37.67;100749.80;110028;1265;22322;-59
2023/07/09 09:43:34;;;;;;;;;;;;;;;28.07;37.21;100745.05;109984;1270;23244;-61
2023/07/09 09:46:08;;;;;;;4.50;1.40;;;;;;;28.11;36.90;100746.05;110028;1265;22375;-61
2023/07/09 09:48:41;;;;;;;5.80;1.90;;;;;;;28.15;36.81;100751.17;110033;1272;22272;-62
2023/07/09 09:51:16;;;;;;;3.90;1.40;;;;;;;28.18;36.17;100756.87;110043;1272;22328;-61
2023/07/09 09:53:51;;;;;;;6.70;1.50;;;;;;;28.17;35.82;100754.45;110004;1272;22353;-61
2023/07/09 09:56:27;;;;;;;7.40;2.00;;;;;;;28.18;35.45;100754.70;110016;1272;22289;-60
2023/07/09 09:59:00;;;;;;;5.20;1.30;;;;;;;28.24;34.57;100754.20;110007;1272;22270;-60
2023/07/09 10:01:34;;;;;;;6.00;1.40;;;;;;;28.23;33.55;100756.90;110006;1272;22290;-62
2023/07/09 10:04:07;;;;;;;6.40;1.40;;;;;;;28.34;33.81;100751.27;110030;1269;22311;-62
2023/07/09 10:06:42;;;;;;;6.30;1.40;;;;;;;28.44;33.84;100759.64;110018;1269;22335;-61
2023/07/09 10:09:24;;;;;;;5.30;1.50;;;;;;;28.51;33.34;100761.95;110000;1266;22145;-61
2023/07/09 10:12:05;;;;;;;4.90;1.30;;;;;;;28.54;33.23;100755.41;110012;1268;22158;-59
2023/07/09 10:14:43;;;;;;;6.10;1.40;;;;;;;28.57;32.99;100755.14;110045;1265;22163;-61
2023/07/09 10:17:23;;;;;;;10.10;1.70;;;;;;;28.59;33.03;100759.45;110041;1265;22430;-62
2023/07/09 10:20:03;;;;;;;4.70;1.10;;;;;;;28.60;32.17;100760.16;110048;1264;22141;-61
2023/07/09 10:22:48;;;;;;;;;;;;;;;28.62;32.02;100758.11;110037;1272;23076;-63
2023/07/09 10:25:34;;;;;;;6.10;1.40;;;;;;;28.62;31.84;100756.27;110032;1269;22334;-61
2023/07/09 10:28:31;;;;;;;5.70;1.50;;;;;;;28.65;31.77;100751.33;109998;1276;22324;-62
2023/07/09 10:31:11;;;;;;;5.90;1.40;;;;;;;28.76;31.62;100753.83;109887;1267;22424;-61
2023/07/09 10:34:05;;;;;;;8.00;1.70;;;;;;;28.84;31.07;100756.70;109971;1273;22886;-61
2023/07/09 10:36:49;;;;;;;7.30;1.40;;;;;;;28.84;31.05;100754.02;109970;1273;22149;-60
2023/07/09 10:39:25;;;;;;;5.10;1.50;;;;;;;28.88;31.03;100748.45;109979;1274;22172;-59
2023/07/09 10:42:00;;;;;;;4.00;1.30;;;;;;;28.86;30.94;100749.04;109977;1266;23079;-61
2023/07/09 10:44:37;;;;;;;4.60;1.50;;;;;;;28.90;30.77;100748.16;109977;1273;22201;-60
2023/07/09 10:47:16;;;;;;;5.50;1.50;;;;;;;28.99;30.47;100751.64;109940;1273;22456;-61
2023/07/09 10:49:47;;;;;;;11.60;1.60;;;;;;;29.11;30.41;100750.64;109969;1277;22208;-61
2023/07/09 10:52:26;;;;;;;5.20;1.30;;;;;;;29.17;30.32;100742.52;109955;1265;23549;-62
2023/07/09 10:55:04;;;;;;;7.20;1.50;;;;;;;29.23;30.01;100744.70;109945;1273;22157;-62
2023/07/09 10:57:45;;;;;;;6.10;1.40;;;;;;;29.28;29.47;100747.15;109975;1266;22223;-60
2023/07/09 11:00:22;;;;;;;6.20;1.60;;;;;;;29.34;29.35;100746.02;109907;1267;22322;-62
2023/07/09 11:03:01;;;;;;;4.20;1.20;;;;;;;29.34;29.43;100745.41;109957;1270;22919;-61
2023/07/09 11:05:34;;;;;;;5.90;1.40;;;;;;;29.33;29.17;100752.73;109900;1273;22297;-62
2023/07/09 11:08:13;;;;;;;10.10;1.60;;;;;;;29.36;28.56;100747.44;109967;1281;22409;-61
2023/07/09 11:10:56;;;;;;;5.20;1.40;;;;;;;29.32;28.99;100748.27;109965;1275;23014;-65
2023/07/09 11:13:36;;;;;;;6.20;1.60;;;;;;;29.34;28.53;100748.59;109907;1267;22203;-62
2023/07/09 11:16:12;;;;;;;5.80;1.30;;;;;;;29.39;28.84;100747.52;109954;1273;22314;-62
2023/07/09 11:18:53;;;;;;;8.80;1.40;;;;;;;29.43;28.88;100744.02;109898;1271;22252;-62
2023/07/09 11:21:25;;;;;;;5.00;1.30;;;;;;;29.42;28.89;100742.38;109990;1268;23019;-61
2023/07/09 11:23:59;;;;;;;6.30;1.70;;;;;;;29.42;28.85;100737.84;109994;1269;22149;-62
2023/07/09 11:26:32;;;;;;;6.00;1.30;;;;;;;29.45;29.04;100737.29;109961;1272;22190;-62
2023/07/09 11:29:19;;;;;;;6.90;1.40;;;;;;;29.46;28.96;100739.50;110001;1266;22326;-62
2023/07/09 11:31:50;;;;;;;8.10;1.60;;;;;;;29.49;29.22;100736.02;109966;1281;22164;-60
2023/07/09 11:34:27;;;;;;;4.60;1.50;;;;;;;29.51;29.23;100731.96;109954;1268;22334;-62
2023/07/09 11:37:02;;;;;;;6.00;1.40;;;;;;;29.54;29.32;100732.10;109963;1274;22201;-61
2023/07/09 11:39:45;;;;;;;7.00;1.70;;;;;;;29.57;28.91;100726.67;109944;1265;22176;-62